This is the latest recevied weather packets stored in our database for station/object VA7NEZ. If no packets are shown the sender has not sent any weather packets the latest 10 day(s).
| Time | Temp. | Humidity | Pressure | Rain* | Wind** | Luminosity | Snow |
|---|---|---|---|---|---|---|---|
| 1778129731 | 18.33° C | 43% | 1011.9 hPa | 0 mm | - | - | - |
| 1778129131 | 17.78° C | 46% | 1011.9 hPa | 0 mm | - | - | - |
| 1778128068 | 17.78° C | 49% | 1011.5 hPa | 0 mm | - | - | - |
| 1778127572 | 18.33° C | 49% | 1011.6 hPa | 0 mm | - | - | - |
| 1778126974 | 18.33° C | 46% | 1011.3 hPa | 0 mm | - | - | - |
| 1778125962 | 19.44° C | 40% | 1011.2 hPa | 0 mm | - | - | - |
| 1778125387 | 19.44° C | 39% | 1010.9 hPa | 0 mm | - | - | - |
| 1778124267 | 20° C | 37% | 1010.7 hPa | 0 mm | - | - | - |
| 1778122772 | 21.11° C | 35% | 1010.1 hPa | 0 mm | - | - | - |
| 1778122222 | 21.67° C | 35% | 1010.1 hPa | 0 mm | - | - | - |
| 1778121741 | 21.67° C | 34% | 1010.2 hPa | 0 mm | - | - | - |
| 1778120072 | 26.11° C | 29% | 1010 hPa | 0 mm | - | - | - |
| 1778119557 | 26.11° C | 29% | 1010 hPa | 0 mm | - | - | - |
| 1778118993 | 24.44° C | 31% | 1009.8 hPa | 0 mm | - | - | - |
| 1778118487 | 22.78° C | 33% | 1009.9 hPa | 0 mm | - | - | - |
| 1778117933 | 23.33° C | 33% | 1009.7 hPa | 0 mm | - | - | - |
| 1778117367 | 23.33° C | 33% | 1009.4 hPa | 0 mm | - | - | - |
| 1778116782 | 23.89° C | 32% | 1009.4 hPa | 0 mm | - | - | - |
| 1778116302 | 25.56° C | 30% | 1009.4 hPa | 0 mm | - | - | - |
| 1778115728 | 26.11° C | 29% | 1009.2 hPa | 0 mm | - | - | - |
| 1778115147 | 25° C | 31% | 1009.4 hPa | 0 mm | - | - | - |
| 1778114552 | 25° C | 31% | 1009 hPa | 0 mm | - | - | - |
| 1778113993 | 25.56° C | 31% | 1008.9 hPa | 0 mm | - | - | - |
| 1778113442 | 25° C | 31% | 1008.9 hPa | 0 mm | - | - | - |
| 1778112898 | 25.56° C | 31% | 1009 hPa | 0 mm | - | - | - |
* Rain latest hour (hover to see other rain measurements)
** Current wind speed in m/s (hover to see current wind gust speed)